Heflin, Louisiana
Current Conditions -  °F | °C
As of 10:15 AM on Friday 19 Dec 2014 (Local Time) from KMNE Reporting Station
Moderate Rain Moderate Rain  
Wind Chill: 41°   Ceiling: 700
Heat Index: 46°   Visibility: 3mi
Dew Point: 45°   Wind: 10mph
Humidity: 93%   Direction: 360°N
Pressure: 30.25"   Gusts: NA
Location:  32.46°N, 93.26°W
Report Text: KMNE 191615Z AUTO 36009KT 3SM RA OVC007 08/07 A3025 RMK AO2 P0003
Loading
Personal Weather Stations






























Interactive Weather Map New forecast layout! Learn more

10-Day Weather Forecast

Advertisements
Track Severe Weather on mobile